sensor_id;sensor_type;location;lat;lon;timestamp;P1;P2;P0
74436;PMS7003;62868;52.360;30.424;2022-10-16T00:03:58;0.8;0.3;0
74436;PMS7003;62868;52.360;30.424;2022-10-16T00:08:40;0.7;0.7;0.3
74436;PMS7003;62868;52.360;30.424;2022-10-16T00:14:21;0.3;0;0
74436;PMS7003;62868;52.360;30.424;2022-10-16T00:19:21;0.3;0.3;0
74436;PMS7003;62868;52.360;30.424;2022-10-16T00:24:05;0.5;0;0
74436;PMS7003;62868;52.360;30.424;2022-10-16T00:29:21;0;0;0
74436;PMS7003;62868;52.360;30.424;2022-10-16T00:34:15;1;0.3;0
74436;PMS7003;62868;52.360;30.424;2022-10-16T00:39:07;0.3;0.3;0.3
74436;PMS7003;62868;52.360;30.424;2022-10-16T00:43:58;0.3;0.3;0
74436;PMS7003;62868;52.360;30.424;2022-10-16T00:49:06;0.7;0.3;0
74436;PMS7003;62868;52.360;30.424;2022-10-16T00:53:39;0.7;0;0
74436;PMS7003;62868;52.360;30.424;2022-10-16T00:58:51;0.8;0.3;0.3
74436;PMS7003;62868;52.360;30.424;2022-10-16T01:03:47;1;0.7;0.3
74436;PMS7003;62868;52.360;30.424;2022-10-16T01:09:21;0.3;0.3;0.3
74436;PMS7003;62868;52.360;30.424;2022-10-16T01:14:11;0.3;0.3;0
74436;PMS7003;62868;52.360;30.424;2022-10-16T01:19:02;0.8;0.3;0.3
74436;PMS7003;62868;52.360;30.424;2022-10-16T01:24:06;0;0;0
74436;PMS7003;62868;52.360;30.424;2022-10-16T01:29:02;1;0.3;0
74436;PMS7003;62868;52.360;30.424;2022-10-16T01:33:40;0.3;0.3;0
74436;PMS7003;62868;52.360;30.424;2022-10-16T01:38:52;0.3;0;0
74436;PMS7003;62868;52.360;30.424;2022-10-16T01:43:50;1;0.3;0
74436;PMS7003;62868;52.360;30.424;2022-10-16T01:48:53;0.3;0.3;0.3
74436;PMS7003;62868;52.360;30.424;2022-10-16T01:54:11;0.7;0.3;0
74436;PMS7003;62868;52.360;30.424;2022-10-16T01:59:02;0.3;0.3;0.3
74436;PMS7003;62868;52.360;30.424;2022-10-16T02:04:16;1;0.7;0.3
74436;PMS7003;62868;52.360;30.424;2022-10-16T02:09:07;0.3;0.3;0
74436;PMS7003;62868;52.360;30.424;2022-10-16T02:13:58;1.3;1;0.3
74436;PMS7003;62868;52.360;30.424;2022-10-16T02:19:09;1.3;0.8;0
74436;PMS7003;62868;52.360;30.424;2022-10-16T02:24:21;0;0;0
74436;PMS7003;62868;52.360;30.424;2022-10-16T02:28:40;1;1;0.7
74436;PMS7003;62868;52.360;30.424;2022-10-16T02:33:51;2.3;1.3;0.7
74436;PMS7003;62868;52.360;30.424;2022-10-16T02:38:49;1.3;0.5;0.3
74436;PMS7003;62868;52.360;30.424;2022-10-16T02:44:19;1;0.3;0.3
74436;PMS7003;62868;52.360;30.424;2022-10-16T02:49:15;1;1;0.3
74436;PMS7003;62868;52.360;30.424;2022-10-16T02:54:23;1.5;1.3;0.8
74436;PMS7003;62868;52.360;30.424;2022-10-16T02:59:01;1;0.7;0.3
74436;PMS7003;62868;52.360;30.424;2022-10-16T03:04:15;2.3;2;1.3
74436;PMS7003;62868;52.360;30.424;2022-10-16T03:09:25;2.3;2;1.3
74436;PMS7003;62868;52.360;30.424;2022-10-16T03:14:01;3;2;1.5
74436;PMS7003;62868;52.360;30.424;2022-10-16T03:18:40;3;1.7;1
74436;PMS7003;62868;52.360;30.424;2022-10-16T03:23:51;1;1;0.7
74436;PMS7003;62868;52.360;30.424;2022-10-16T03:29:03;1;0.3;0.3
74436;PMS7003;62868;52.360;30.424;2022-10-16T03:34:03;1;0.8;0.8
74436;PMS7003;62868;52.360;30.424;2022-10-16T03:39:01;0.7;0.7;0.3
74436;PMS7003;62868;52.360;30.424;2022-10-16T03:44:25;1.3;0.7;0.3
74436;PMS7003;62868;52.360;30.424;2022-10-16T03:49:25;0.3;0.3;0.3
74436;PMS7003;62868;52.360;30.424;2022-10-16T03:53:39;1.3;1.3;0.8
74436;PMS7003;62868;52.360;30.424;2022-10-16T03:59:27;1;1;0.7
74436;PMS7003;62868;52.360;30.424;2022-10-16T04:04:25;2.3;1.7;1
74436;PMS7003;62868;52.360;30.424;2022-10-16T04:09:23;3;1.3;1.3
74436;PMS7003;62868;52.360;30.424;2022-10-16T04:13:39;1.3;1;1
74436;PMS7003;62868;52.360;30.424;2022-10-16T04:18:39;1;1;1
74436;PMS7003;62868;52.360;30.424;2022-10-16T04:24:27;2;1.7;1
74436;PMS7003;62868;52.360;30.424;2022-10-16T04:29:15;1.3;0.7;0.7
74436;PMS7003;62868;52.360;30.424;2022-10-16T04:34:05;1.8;1;0.8
74436;PMS7003;62868;52.360;30.424;2022-10-16T04:39:17;0.7;0.7;0.7
74436;PMS7003;62868;52.360;30.424;2022-10-16T04:44:13;1;0.7;0.7
74436;PMS7003;62868;52.360;30.424;2022-10-16T04:49:03;2;0.7;0.7
74436;PMS7003;62868;52.360;30.424;2022-10-16T04:54:13;1;0.8;0.5
74436;PMS7003;62868;52.360;30.424;2022-10-16T04:59:27;3.3;1.7;1.3
74436;PMS7003;62868;52.360;30.424;2022-10-16T05:03:39;1.7;1;1
74436;PMS7003;62868;52.360;30.424;2022-10-16T05:09:03;1.3;0.5;0.5
74436;PMS7003;62868;52.360;30.424;2022-10-16T05:14:27;1;0.7;0.3
74436;PMS7003;62868;52.360;30.424;2022-10-16T05:19:17;3;1.3;1
74436;PMS7003;62868;52.360;30.424;2022-10-16T05:24:27;1.7;1;1
74436;PMS7003;62868;52.360;30.424;2022-10-16T05:29:03;1.5;1;1
74436;PMS7003;62868;52.360;30.424;2022-10-16T05:34:17;1.3;1;0.7
74436;PMS7003;62868;52.360;30.424;2022-10-16T05:39:27;1.7;1;0.7
74436;PMS7003;62868;52.360;30.424;2022-10-16T05:44:15;1;1;0.3
74436;PMS7003;62868;52.360;30.424;2022-10-16T05:48:47;2.3;1.8;1
74436;PMS7003;62868;52.360;30.424;2022-10-16T05:53:53;2.3;2;1.7
74436;PMS7003;62868;52.360;30.424;2022-10-16T05:58:55;2.7;2;1.3
74436;PMS7003;62868;52.360;30.424;2022-10-16T06:04:05;2.7;2.3;2.3
74436;PMS7003;62868;52.360;30.424;2022-10-16T06:09:02;2.3;2;1.5
74436;PMS7003;62868;52.360;30.424;2022-10-16T06:14:27;2.3;1.7;1
74436;PMS7003;62868;52.360;30.424;2022-10-16T06:19:27;1.7;1.3;0.7
74436;PMS7003;62868;52.360;30.424;2022-10-16T06:24:03;1.7;1;1
74436;PMS7003;62868;52.360;30.424;2022-10-16T06:29:27;2.5;2;1.5
74436;PMS7003;62868;52.360;30.424;2022-10-16T06:34:27;2.3;2;1.7
74436;PMS7003;62868;52.360;30.424;2022-10-16T06:38:41;2.3;2.3;1.7
74436;PMS7003;62868;52.360;30.424;2022-10-16T06:43:53;2;1.7;1
74436;PMS7003;62868;52.360;30.424;2022-10-16T06:48:39;3;2.5;1.8
74436;PMS7003;62868;52.360;30.424;2022-10-16T06:54:23;2.7;1.7;1
74436;PMS7003;62868;52.360;30.424;2022-10-16T06:59:15;2;1.3;1
74436;PMS7003;62868;52.360;30.424;2022-10-16T07:04:15;2;1.3;1
74436;PMS7003;62868;52.360;30.424;2022-10-16T07:09:17;1;0.7;0.3
74436;PMS7003;62868;52.360;30.424;2022-10-16T07:14:15;0.7;0.3;0
74436;PMS7003;62868;52.360;30.424;2022-10-16T07:19:15;1.7;1.3;1.3
74436;PMS7003;62868;52.360;30.424;2022-10-16T07:24:14;2.5;1.8;1.3
74436;PMS7003;62868;52.360;30.424;2022-10-16T07:29:25;3;1;1
74436;PMS7003;62868;52.360;30.424;2022-10-16T07:33:40;2;1.7;1.3
74436;PMS7003;62868;52.360;30.424;2022-10-16T07:38:53;2.3;2;1.3
74436;PMS7003;62868;52.360;30.424;2022-10-16T07:43:54;2.3;1.5;1.3
74436;PMS7003;62868;52.360;30.424;2022-10-16T07:49:25;3.3;1.7;1.7
74436;PMS7003;62868;52.360;30.424;2022-10-16T07:54:27;2.7;2.3;1.7
74436;PMS7003;62868;52.360;30.424;2022-10-16T07:59:03;1.7;1.3;1.3
74436;PMS7003;62868;52.360;30.424;2022-10-16T08:04:27;3;2.8;2.3
74436;PMS7003;62868;52.360;30.424;2022-10-16T08:09:13;2.3;2.3;1.7
74436;PMS7003;62868;52.360;30.424;2022-10-16T08:13:53;2.7;2.3;2.3
74436;PMS7003;62868;52.360;30.424;2022-10-16T08:19:03;2;1.7;1
74436;PMS7003;62868;52.360;30.424;2022-10-16T08:23:53;2.3;1.8;1.5
74436;PMS7003;62868;52.360;30.424;2022-10-16T08:28:49;4;3.7;2.7
74436;PMS7003;62868;52.360;30.424;2022-10-16T08:34:13;3.7;3;2.3
74436;PMS7003;62868;52.360;30.424;2022-10-16T08:38:39;3;3;2.7
74436;PMS7003;62868;52.360;30.424;2022-10-16T08:44:22;3.5;2.5;1.8
74436;PMS7003;62868;52.360;30.424;2022-10-16T08:48:43;2.3;2.3;1.3
74436;PMS7003;62868;52.360;30.424;2022-10-16T08:54:02;2;1.7;1.7
74436;PMS7003;62868;52.360;30.424;2022-10-16T08:59:03;2;1.8;1.5
74436;PMS7003;62868;52.360;30.424;2022-10-16T09:04:22;2.7;2;1.7
74436;PMS7003;62868;52.360;30.424;2022-10-16T09:09:32;2.7;2;1.3
74436;PMS7003;62868;52.360;30.424;2022-10-16T09:13:43;2;2;1.3
74436;PMS7003;62868;52.360;30.424;2022-10-16T09:18:40;2.3;2.3;1.8
74436;PMS7003;62868;52.360;30.424;2022-10-16T09:23:39;1.3;1.3;1.3
74436;PMS7003;62868;52.360;30.424;2022-10-16T09:29:14;1.3;1;1
74436;PMS7003;62868;52.360;30.424;2022-10-16T09:34:04;2;2;1
74436;PMS7003;62868;52.360;30.424;2022-10-16T09:39:08;1.8;1.8;1.3
74436;PMS7003;62868;52.360;30.424;2022-10-16T09:44:16;2.3;2;1.3
74436;PMS7003;62868;52.360;30.424;2022-10-16T09:49:21;1.7;1.7;1.7
74436;PMS7003;62868;52.360;30.424;2022-10-16T09:54:16;1.3;1.3;1.3
74436;PMS7003;62868;52.360;30.424;2022-10-16T09:59:28;1.8;1.8;1.5
74436;PMS7003;62868;52.360;30.424;2022-10-16T10:03:40;2.3;2;1.3
74436;PMS7003;62868;52.360;30.424;2022-10-16T10:08:39;2.3;2.3;2
74436;PMS7003;62868;52.360;30.424;2022-10-16T10:14:03;2;1.7;1.3
74436;PMS7003;62868;52.360;30.424;2022-10-16T10:19:27;2;1.3;1
74436;PMS7003;62868;52.360;30.424;2022-10-16T10:24:30;2.3;1.7;1.7
74436;PMS7003;62868;52.360;30.424;2022-10-16T10:29:06;1.7;1.7;1.7
74436;PMS7003;62868;52.360;30.424;2022-10-16T10:34:34;2.3;1.7;1.3
74436;PMS7003;62868;52.360;30.424;2022-10-16T10:39:19;2.5;2.3;1.5
74436;PMS7003;62868;52.360;30.424;2022-10-16T10:43:56;1.3;1.3;1.3
74436;PMS7003;62868;52.360;30.424;2022-10-16T10:49:08;1.7;1.7;1.3
74436;PMS7003;62868;52.360;30.424;2022-10-16T10:54:09;2;2;1.5
74436;PMS7003;62868;52.360;30.424;2022-10-16T10:58:57;2.7;2.3;2
74436;PMS7003;62868;52.360;30.424;2022-10-16T11:05:25;3;3;2.7
74436;PMS7003;62868;52.360;30.424;2022-10-16T11:08:40;2.7;2.3;2
74436;PMS7003;62868;52.360;30.424;2022-10-16T11:14:26;1.8;1.3;1.3
74436;PMS7003;62868;52.360;30.424;2022-10-16T11:19:32;1.3;1.3;1.3
74436;PMS7003;62868;52.360;30.424;2022-10-16T11:24:06;2;1.7;1
74436;PMS7003;62868;52.360;30.424;2022-10-16T11:29:07;1.3;1.3;1
74436;PMS7003;62868;52.360;30.424;2022-10-16T11:34:28;1.5;1.5;1.3
74436;PMS7003;62868;52.360;30.424;2022-10-16T11:39:26;1.3;1;0.7
74436;PMS7003;62868;52.360;30.424;2022-10-16T11:43:58;1.3;1.3;1
74436;PMS7003;62868;52.360;30.424;2022-10-16T11:48:55;1.3;1;0.7
74436;PMS7003;62868;52.360;30.424;2022-10-16T11:53:55;1.8;1.3;0.8
74436;PMS7003;62868;52.360;30.424;2022-10-16T11:59:17;1.3;1;1
74436;PMS7003;62868;52.360;30.424;2022-10-16T12:04:17;0.3;0;0
74436;PMS7003;62868;52.360;30.424;2022-10-16T12:09:04;0.7;0.7;0.3
74436;PMS7003;62868;52.360;30.424;2022-10-16T12:14:32;1;0.5;0.3
74436;PMS7003;62868;52.360;30.424;2022-10-16T12:19:18;0.7;0.3;0
74436;PMS7003;62868;52.360;30.424;2022-10-16T12:23:48;1.3;1;0.7
74436;PMS7003;62868;52.360;30.424;2022-10-16T12:29:20;0;0;0
74436;PMS7003;62868;52.360;30.424;2022-10-16T12:34:28;1;0.5;0.5
74436;PMS7003;62868;52.360;30.424;2022-10-16T12:38:45;1.7;1.7;0.7
74436;PMS7003;62868;52.360;30.424;2022-10-16T12:43:54;1;1;0.3
74436;PMS7003;62868;52.360;30.424;2022-10-16T12:49:30;0.5;0.5;0.3
74436;PMS7003;62868;52.360;30.424;2022-10-16T12:54:18;0.3;0.3;0.3
74436;PMS7003;62868;52.360;30.424;2022-10-16T12:59:24;1.7;1.7;1.3
74436;PMS7003;62868;52.360;30.424;2022-10-16T13:04:10;3;2.3;1.7
74436;PMS7003;62868;52.360;30.424;2022-10-16T13:09:19;4;3.5;2.8
74436;PMS7003;62868;52.360;30.424;2022-10-16T13:14:35;1.3;1;1
74436;PMS7003;62868;52.360;30.424;2022-10-16T13:19:01;1.3;1.3;1
74436;PMS7003;62868;52.360;30.424;2022-10-16T13:23:48;1.3;1;1
74436;PMS7003;62868;52.360;30.424;2022-10-16T13:29:06;1.5;1;0.8
74436;PMS7003;62868;52.360;30.424;2022-10-16T13:34:16;1.3;1;0.7
74436;PMS7003;62868;52.360;30.424;2022-10-16T13:39:10;1.7;1.7;1.3
74436;PMS7003;62868;52.360;30.424;2022-10-16T13:43:50;1;1;0.7
74436;PMS7003;62868;52.360;30.424;2022-10-16T13:49:30;0.8;0.3;0.3
74436;PMS7003;62868;52.360;30.424;2022-10-16T13:54:30;1.3;1;1
74436;PMS7003;62868;52.360;30.424;2022-10-16T13:59:23;0.7;0;0
74436;PMS7003;62868;52.360;30.424;2022-10-16T14:04:26;1;1;0
74436;PMS7003;62868;52.360;30.424;2022-10-16T14:09:30;0.8;0.8;0.5
74436;PMS7003;62868;52.360;30.424;2022-10-16T14:14:31;1.3;0.7;0.7
74436;PMS7003;62868;52.360;30.424;2022-10-16T14:18:55;1;1;0.3
74436;PMS7003;62868;52.360;30.424;2022-10-16T14:24:12;1;1;0.3
74436;PMS7003;62868;52.360;30.424;2022-10-16T14:29:26;1.8;0.8;0.8
74436;PMS7003;62868;52.360;30.424;2022-10-16T14:34:30;1.7;1.3;1.3
74436;PMS7003;62868;52.360;30.424;2022-10-16T14:39:06;1;0.7;0.7
74436;PMS7003;62868;52.360;30.424;2022-10-16T14:44:18;1.3;0.5;0.5
74436;PMS7003;62868;52.360;30.424;2022-10-16T14:49:17;0.3;0.3;0.3
74436;PMS7003;62868;52.360;30.424;2022-10-16T14:53:40;0;0;0
74436;PMS7003;62868;52.360;30.424;2022-10-16T14:59:14;0.3;0;0
74436;PMS7003;62868;52.360;30.424;2022-10-16T15:04:30;0.3;0.3;0
74436;PMS7003;62868;52.360;30.424;2022-10-16T15:08:54;0.3;0;0
74436;PMS7003;62868;52.360;30.424;2022-10-16T15:13:54;0.7;0.3;0
74436;PMS7003;62868;52.360;30.424;2022-10-16T15:19:30;0.7;0;0
74436;PMS7003;62868;52.360;30.424;2022-10-16T15:24:20;0.5;0;0
74436;PMS7003;62868;52.360;30.424;2022-10-16T15:29:28;0.7;0.7;0
74436;PMS7003;62868;52.360;30.424;2022-10-16T15:34:16;1.3;1;1
74436;PMS7003;62868;52.360;30.424;2022-10-16T15:39:18;1.7;1;1
74436;PMS7003;62868;52.360;30.424;2022-10-16T15:44:28;1.5;1;0.5
74436;PMS7003;62868;52.360;30.424;2022-10-16T15:49:04;1.7;1.3;0.3
74436;PMS7003;62868;52.360;30.424;2022-10-16T15:54:04;0.3;0.3;0
74436;PMS7003;62868;52.360;30.424;2022-10-16T15:58:54;0.7;0.3;0
74436;PMS7003;62868;52.360;30.424;2022-10-16T16:03:56;0;0;0
74436;PMS7003;62868;52.360;30.424;2022-10-16T16:08:50;0.7;0.3;0
74436;PMS7003;62868;52.360;30.424;2022-10-16T16:14:04;0.3;0;0
74436;PMS7003;62868;52.360;30.424;2022-10-16T16:19:28;1;0.3;0.3
74436;PMS7003;62868;52.360;30.424;2022-10-16T16:24:26;0.5;0.5;0.3
74436;PMS7003;62868;52.360;30.424;2022-10-16T16:29:04;0;0;0
74436;PMS7003;62868;52.360;30.424;2022-10-16T16:34:28;0.3;0;0
74436;PMS7003;62868;52.360;30.424;2022-10-16T16:39:16;0;0;0
74436;PMS7003;62868;52.360;30.424;2022-10-16T16:44:26;0.3;0.3;0
74436;PMS7003;62868;52.360;30.424;2022-10-16T16:48:50;0;0;0
74436;PMS7003;62868;52.360;30.424;2022-10-16T16:54:16;1;0.3;0
74436;PMS7003;62868;52.360;30.424;2022-10-16T16:58:55;0.7;0.3;0
74436;PMS7003;62868;52.360;30.424;2022-10-16T17:04:14;1;0.7;0.3
74436;PMS7003;62868;52.360;30.424;2022-10-16T17:09:03;0;0;0
74436;PMS7003;62868;52.360;30.424;2022-10-16T17:14:18;0;0;0
74436;PMS7003;62868;52.360;30.424;2022-10-16T17:19:12;0;0;0
74436;PMS7003;62868;52.360;30.424;2022-10-16T17:24:12;0;0;0
74436;PMS7003;62868;52.360;30.424;2022-10-16T17:29:16;0;0;0
74436;PMS7003;62868;52.360;30.424;2022-10-16T17:34:26;0.3;0;0
74436;PMS7003;62868;52.360;30.424;2022-10-16T17:38:54;0.7;0.3;0
74436;PMS7003;62868;52.360;30.424;2022-10-16T17:43:40;0.3;0;0
74436;PMS7003;62868;52.360;30.424;2022-10-16T17:48:40;0;0;0
74436;PMS7003;62868;52.360;30.424;2022-10-16T17:54:02;0.3;0.3;0
74436;PMS7003;62868;52.360;30.424;2022-10-16T17:59:26;0.3;0;0
74436;PMS7003;62868;52.360;30.424;2022-10-16T18:04:05;0;0;0
74436;PMS7003;62868;52.360;30.424;2022-10-16T18:09:24;0.3;0.3;0
74436;PMS7003;62868;52.360;30.424;2022-10-16T18:14:14;0.7;0.3;0
74436;PMS7003;62868;52.360;30.424;2022-10-16T18:19:04;0.7;0;0
74436;PMS7003;62868;52.360;30.424;2022-10-16T18:23:54;0.3;0.3;0
74436;PMS7003;62868;52.360;30.424;2022-10-16T18:28:54;0.3;0;0
74436;PMS7003;62868;52.360;30.424;2022-10-16T18:33:56;0.3;0;0
74436;PMS7003;62868;52.360;30.424;2022-10-16T18:38:40;0.3;0;0
74436;PMS7003;62868;52.360;30.424;2022-10-16T18:43:54;0.3;0.3;0
74436;PMS7003;62868;52.360;30.424;2022-10-16T18:49:28;0;0;0
74436;PMS7003;62868;52.360;30.424;2022-10-16T18:54:16;0.3;0.3;0
74436;PMS7003;62868;52.360;30.424;2022-10-16T18:59:05;0.3;0.3;0
74436;PMS7003;62868;52.360;30.424;2022-10-16T19:04:04;0.7;0.3;0.3
74436;PMS7003;62868;52.360;30.424;2022-10-16T19:09:14;1.3;0.5;0
74436;PMS7003;62868;52.360;30.424;2022-10-16T19:14:26;0.3;0.3;0.3
74436;PMS7003;62868;52.360;30.424;2022-10-16T19:18:56;1;0.7;0.3
74436;PMS7003;62868;52.360;30.424;2022-10-16T19:23:54;1.3;0.8;0.5
74436;PMS7003;62868;52.360;30.424;2022-10-16T19:29:04;0.7;0.7;0.3
74436;PMS7003;62868;52.360;30.424;2022-10-16T19:34:18;0.7;0.7;0.7
74436;PMS7003;62868;52.360;30.424;2022-10-16T19:39:04;1.7;0.7;0.3
74436;PMS7003;62868;52.360;30.424;2022-10-16T19:44:24;0.5;0;0
74436;PMS7003;62868;52.360;30.424;2022-10-16T19:49:15;0.7;0.3;0.3
74436;PMS7003;62868;52.360;30.424;2022-10-16T19:54:16;1;0.7;0.3
74436;PMS7003;62868;52.360;30.424;2022-10-16T19:59:02;1.3;1;0.7
74436;PMS7003;62868;52.360;30.424;2022-10-16T20:04:28;1.3;0.8;0.3
74436;PMS7003;62868;52.360;30.424;2022-10-16T20:08:54;1;0.7;0.3
74436;PMS7003;62868;52.360;30.424;2022-10-16T20:13:40;0.7;0.7;0.3
74436;PMS7003;62868;52.360;30.424;2022-10-16T20:18:54;1.3;1.3;1
74436;PMS7003;62868;52.360;30.424;2022-10-16T20:24:26;1.3;1;0.3
74436;PMS7003;62868;52.360;30.424;2022-10-16T20:29:26;0.7;0.3;0.3
74436;PMS7003;62868;52.360;30.424;2022-10-16T20:34:04;0.7;0.7;0
74436;PMS7003;62868;52.360;30.424;2022-10-16T20:39:30;0.3;0.3;0
74436;PMS7003;62868;52.360;30.424;2022-10-16T20:44:16;1.5;0.3;0.3
74436;PMS7003;62868;52.360;30.424;2022-10-16T20:49:06;0.3;0.3;0
74436;PMS7003;62868;52.360;30.424;2022-10-16T20:54:06;1;0;0
74436;PMS7003;62868;52.360;30.424;2022-10-16T20:58:54;0.3;0;0
74436;PMS7003;62868;52.360;30.424;2022-10-16T21:03:40;0.5;0;0
74436;PMS7003;62868;52.360;30.424;2022-10-16T21:08:41;0.7;0.3;0.3
74436;PMS7003;62868;52.360;30.424;2022-10-16T21:14:07;0.7;0;0
74436;PMS7003;62868;52.360;30.424;2022-10-16T21:18:40;0.5;0.3;0
74436;PMS7003;62868;52.360;30.424;2022-10-16T21:24:28;0.3;0.3;0
74436;PMS7003;62868;52.360;30.424;2022-10-16T21:29:16;0.3;0.3;0
74436;PMS7003;62868;52.360;30.424;2022-10-16T21:34:04;0.3;0;0
74436;PMS7003;62868;52.360;30.424;2022-10-16T21:39:28;0.5;0.5;0
74436;PMS7003;62868;52.360;30.424;2022-10-16T21:44:16;0.3;0.3;0.3
74436;PMS7003;62868;52.360;30.424;2022-10-16T21:49:30;0;0;0
74436;PMS7003;62868;52.360;30.424;2022-10-16T21:53:54;1.3;0.7;0
74436;PMS7003;62868;52.360;30.424;2022-10-16T21:58:52;0.8;0.3;0
74436;PMS7003;62868;52.360;30.424;2022-10-16T22:04:30;0.7;0;0
74436;PMS7003;62868;52.360;30.424;2022-10-16T22:09:16;0.3;0;0
74436;PMS7003;62868;52.360;30.424;2022-10-16T22:14:02;0.7;0.3;0
74436;PMS7003;62868;52.360;30.424;2022-10-16T22:19:08;0.3;0.3;0.3
74436;PMS7003;62868;52.360;30.424;2022-10-16T22:23:42;1;1;0
74436;PMS7003;62868;52.360;30.424;2022-10-16T22:28:54;1;0.7;0.3
74436;PMS7003;62868;52.360;30.424;2022-10-16T22:34:16;0.7;0.7;0.3
74436;PMS7003;62868;52.360;30.424;2022-10-16T22:39:24;0.3;0.3;0.3
74436;PMS7003;62868;52.360;30.424;2022-10-16T22:43:54;0.3;0;0
74436;PMS7003;62868;52.360;30.424;2022-10-16T22:48:54;1.3;0.7;0
74436;PMS7003;62868;52.360;30.424;2022-10-16T22:54:28;0.3;0.3;0
74436;PMS7003;62868;52.360;30.424;2022-10-16T22:59:16;0.3;0;0
74436;PMS7003;62868;52.360;30.424;2022-10-16T23:04:24;0;0;0
74436;PMS7003;62868;52.360;30.424;2022-10-16T23:09:04;0;0;0
74436;PMS7003;62868;52.360;30.424;2022-10-16T23:14:18;0.3;0;0
74436;PMS7003;62868;52.360;30.424;2022-10-16T23:19:26;0.7;0;0
74436;PMS7003;62868;52.360;30.424;2022-10-16T23:23:40;1;0.3;0.3
74436;PMS7003;62868;52.360;30.424;2022-10-16T23:28:46;0.3;0.3;0
74436;PMS7003;62868;52.360;30.424;2022-10-16T23:33:40;0.5;0.3;0.3
74436;PMS7003;62868;52.360;30.424;2022-10-16T23:39:04;0.7;0;0
74436;PMS7003;62868;52.360;30.424;2022-10-16T23:44:02;0;0;0
74436;PMS7003;62868;52.360;30.424;2022-10-16T23:49:04;0.7;0.3;0
74436;PMS7003;62868;52.360;30.424;2022-10-16T23:54:22;1;0.8;0
74436;PMS7003;62868;52.360;30.424;2022-10-16T23:59:22;1.7;0;0
